createdAt,value
2022-11-14T00:04:49.009Z,60.25
2022-11-14T00:10:12.470Z,64.68
2022-11-14T00:15:34.220Z,57.35
2022-11-14T00:20:56.398Z,64.38
2022-11-14T00:26:19.813Z,61.50
2022-11-14T00:31:42.428Z,72.65
2022-11-14T00:37:04.584Z,63.22
2022-11-14T00:42:27.872Z,70.20
2022-11-14T00:47:49.908Z,66.50
2022-11-14T00:53:11.973Z,53.65
2022-11-14T00:58:35.156Z,61.53
2022-11-14T01:03:56.844Z,59.10
2022-11-14T01:09:18.789Z,81.55
2022-11-14T01:14:42.128Z,60.85
2022-11-14T01:20:05.233Z,81.30
2022-11-14T01:25:27.218Z,68.75
2022-11-14T01:30:50.040Z,60.45
2022-11-14T01:36:12.131Z,64.43
2022-11-14T01:41:34.202Z,67.40
2022-11-14T01:46:57.313Z,69.40
2022-11-14T01:52:22.158Z,77.40
2022-11-14T01:57:47.055Z,67.57
2022-11-14T02:03:11.303Z,75.35
2022-11-14T02:08:33.919Z,71.40
2022-11-14T02:13:55.991Z,90.35
2022-11-14T02:19:19.370Z,69.65
2022-11-14T02:24:42.876Z,74.50
2022-11-14T02:30:07.050Z,72.18
2022-11-14T02:35:29.124Z,87.57
2022-11-14T02:40:52.320Z,80.75
2022-11-14T02:46:14.114Z,79.53
2022-11-14T02:51:35.885Z,97.13
2022-11-14T02:56:59.541Z,81.28
2022-11-14T03:02:21.171Z,103.05
2022-11-14T03:07:42.601Z,92.80
2022-11-14T03:13:05.646Z,89.93
2022-11-14T03:18:27.526Z,90.78
2022-11-14T03:23:49.500Z,106.57
2022-11-14T03:29:12.346Z,98.53
2022-11-14T03:34:33.897Z,76.68
2022-11-14T03:39:55.864Z,83.30
2022-11-14T03:45:19.142Z,98.88
2022-11-14T03:50:41.805Z,75.25
2022-11-14T03:56:04.387Z,83.18
2022-11-14T04:01:29.108Z,87.00
2022-11-14T04:06:50.949Z,85.15
2022-11-14T04:12:15.878Z,78.57
2022-11-14T04:17:40.113Z,83.22
2022-11-14T04:23:02.138Z,80.88
2022-11-14T04:28:24.131Z,68.45
2022-11-14T04:33:47.101Z,76.22
2022-11-14T04:39:08.807Z,78.80
2022-11-14T04:44:30.623Z,82.25
2022-11-14T04:49:53.374Z,82.80
2022-11-14T04:55:15.154Z,96.93
2022-11-14T05:00:37.059Z,73.15
2022-11-14T05:06:02.776Z,94.70
2022-11-14T05:11:28.990Z,94.00
2022-11-14T05:16:51.150Z,91.95
2022-11-14T05:22:14.436Z,88.00
2022-11-14T05:27:36.023Z,75.35
2022-11-14T05:32:57.531Z,108.70
2022-11-14T05:38:20.708Z,92.43
2022-11-14T05:43:43.633Z,95.93
2022-11-14T05:49:05.370Z,83.28
2022-11-14T05:54:28.502Z,85.95
2022-11-14T05:59:50.268Z,100.80
2022-11-14T06:05:12.187Z,111.85
2022-11-14T06:10:36.528Z,122.28
2022-11-14T06:16:00.850Z,96.45
2022-11-14T06:21:24.394Z,95.13
2022-11-14T06:26:47.737Z,106.03
2022-11-14T06:32:09.254Z,92.10
2022-11-14T06:37:33.855Z,96.50
2022-11-14T06:42:57.347Z,101.38
2022-11-14T06:48:18.965Z,89.90
2022-11-14T06:53:41.524Z,106.57
2022-11-14T06:59:04.663Z,84.00
2022-11-14T07:04:26.560Z,108.78
2022-11-14T07:09:48.068Z,101.43
2022-11-14T07:15:11.402Z,89.25
2022-11-14T07:20:33.242Z,99.07
2022-11-14T07:25:55.089Z,107.00
2022-11-14T07:31:19.851Z,92.90
2022-11-14T07:36:41.771Z,101.57
2022-11-14T07:42:03.887Z,85.03
2022-11-14T07:47:26.975Z,110.05
2022-11-14T07:52:51.022Z,102.13
2022-11-14T07:58:13.546Z,91.93
2022-11-14T08:03:40.921Z,111.38
2022-11-14T08:09:05.793Z,87.47
2022-11-14T08:14:27.772Z,92.70
2022-11-14T08:19:51.027Z,98.63
2022-11-14T08:25:12.561Z,91.05
2022-11-14T08:30:34.422Z,101.78
2022-11-14T08:36:00.984Z,87.20
2022-11-14T08:41:22.751Z,98.45
2022-11-14T08:46:44.599Z,95.97
2022-11-14T08:52:12.331Z,89.03
2022-11-14T08:57:37.394Z,83.32
2022-11-14T09:02:59.099Z,75.82
2022-11-14T09:08:22.695Z,61.88
2022-11-14T09:13:44.547Z,59.97
2022-11-14T09:19:06.264Z,66.97
2022-11-14T09:24:29.495Z,65.07
2022-11-14T09:29:51.587Z,55.47
2022-11-14T09:35:13.278Z,51.50
2022-11-14T09:40:49.468Z,64.13
2022-11-14T09:46:20.822Z,61.85
2022-11-14T09:51:49.364Z,64.53
2022-11-14T09:57:17.340Z,61.63
2022-11-14T10:02:50.766Z,56.40
2022-11-14T10:08:26.630Z,60.67
2022-11-14T10:14:15.589Z,53.40
2022-11-14T10:19:43.099Z,64.55
2022-11-14T10:25:21.202Z,58.83
2022-11-14T10:30:53.380Z,58.35
2022-11-14T10:36:23.519Z,46.47
2022-11-14T10:42:07.508Z,49.55
2022-11-14T10:47:36.776Z,49.65
2022-11-14T10:53:03.156Z,43.67
2022-11-14T10:58:25.046Z,40.75
2022-11-14T11:03:47.936Z,44.92
2022-11-14T11:09:33.384Z,51.97
2022-11-14T11:15:15.142Z,46.53
2022-11-14T11:20:41.045Z,45.53
2022-11-14T11:26:05.940Z,43.15
2022-11-14T11:31:27.813Z,48.90
2022-11-14T11:36:55.493Z,42.33
2022-11-14T11:42:22.795Z,40.78
2022-11-14T11:47:50.534Z,35.30
2022-11-14T11:53:21.072Z,48.13
2022-11-14T11:58:47.277Z,37.03
2022-11-14T12:04:09.013Z,41.80
2022-11-14T12:10:08.940Z,38.40
2022-11-14T12:15:24.388Z,41.40
2022-11-14T12:21:03.771Z,41.90
2022-11-14T12:26:44.738Z,35.25
2022-11-14T12:32:11.486Z,37.83
2022-11-14T12:37:36.102Z,27.52
2022-11-14T12:43:01.545Z,38.45
2022-11-14T12:48:30.828Z,34.88
2022-11-14T12:53:53.332Z,35.45
2022-11-14T12:59:28.302Z,26.75
2022-11-14T13:05:14.782Z,31.35
2022-11-14T13:10:39.651Z,28.45
2022-11-14T13:16:22.594Z,29.70
2022-11-14T13:22:18.317Z,23.98
2022-11-14T13:28:05.946Z,32.97
2022-11-14T13:33:45.067Z,27.35
2022-11-14T13:39:24.852Z,29.80
2022-11-14T13:45:17.970Z,29.88
2022-11-14T13:50:43.734Z,35.63
2022-11-14T13:56:20.380Z,32.17
2022-11-14T14:01:53.090Z,32.08
2022-11-14T14:07:24.212Z,29.77
2022-11-14T14:12:59.521Z,27.48
2022-11-14T14:18:30.305Z,28.13
2022-11-14T14:24:04.420Z,27.98
2022-11-14T14:29:33.336Z,24.17
2022-11-14T14:34:58.457Z,26.20
2022-11-14T14:45:53.291Z,28.65
2022-11-14T14:51:29.043Z,32.63
2022-11-14T14:57:00.069Z,29.15
2022-11-14T15:02:23.393Z,27.30
2022-11-14T15:07:46.453Z,27.30
2022-11-14T15:13:14.207Z,30.83
2022-11-14T15:18:36.735Z,31.05
2022-11-14T15:24:00.495Z,30.83
2022-11-14T15:29:25.401Z,29.77
2022-11-14T15:35:09.363Z,20.75
2022-11-14T15:40:35.441Z,30.02
2022-11-14T15:46:02.582Z,24.67
2022-11-14T15:51:43.525Z,32.72
2022-11-14T15:57:13.113Z,25.40
2022-11-14T16:02:46.280Z,38.45
2022-11-14T16:08:10.136Z,36.25
2022-11-14T16:13:32.197Z,37.38
2022-11-14T16:18:55.576Z,34.47
2022-11-14T16:24:19.149Z,39.47
2022-11-14T16:29:40.832Z,41.58
2022-11-14T16:35:04.691Z,49.65
2022-11-14T16:40:27.956Z,42.90
2022-11-14T16:45:50.064Z,44.40
2022-11-14T16:51:40.901Z,37.53
2022-11-14T16:56:55.548Z,42.20
2022-11-14T17:02:18.783Z,38.42
2022-11-14T17:07:42.205Z,43.15
2022-11-14T17:13:04.246Z,48.75
2022-11-14T17:18:25.966Z,40.92
2022-11-14T17:23:54.020Z,35.67
2022-11-14T17:29:15.878Z,41.70
2022-11-14T17:34:37.948Z,42.60
2022-11-14T17:40:01.419Z,35.47
2022-11-14T17:45:23.568Z,45.10
2022-11-14T17:50:45.400Z,39.63
2022-11-14T17:56:12.957Z,46.13
2022-11-14T18:01:35.172Z,37.65
2022-11-14T18:06:56.856Z,47.75
2022-11-14T18:12:20.252Z,33.10
2022-11-14T18:17:42.416Z,50.92
2022-11-14T18:23:04.199Z,46.42
2022-11-14T18:28:27.677Z,37.05
2022-11-14T18:33:49.699Z,44.08
2022-11-14T18:39:12.058Z,41.78
2022-11-14T18:44:35.244Z,33.15
2022-11-14T18:49:59.273Z,39.78
2022-11-14T18:55:21.028Z,38.15
2022-11-14T19:00:45.242Z,38.10
2022-11-14T19:06:09.303Z,39.08
2022-11-14T19:11:50.008Z,40.27
2022-11-14T19:17:14.400Z,41.10
2022-11-14T19:22:36.399Z,43.47
2022-11-14T19:27:57.971Z,38.83
2022-11-14T19:33:21.141Z,40.03
2022-11-14T19:38:43.783Z,37.47
2022-11-14T19:44:05.701Z,47.85
2022-11-14T19:49:28.836Z,41.33
2022-11-14T19:54:51.688Z,42.38
2022-11-14T20:00:14.916Z,42.38
2022-11-14T20:05:38.496Z,39.88
2022-11-14T20:11:02.130Z,44.53
2022-11-14T20:16:25.592Z,38.60
2022-11-14T20:21:49.216Z,51.13
2022-11-14T20:27:11.186Z,40.00
2022-11-14T20:32:33.075Z,44.53
2022-11-14T20:37:59.388Z,44.15
2022-11-14T20:43:25.706Z,43.25
2022-11-14T20:48:48.249Z,34.22
2022-11-14T20:54:11.141Z,42.58
2022-11-14T20:59:33.225Z,44.40
2022-11-14T21:04:55.177Z,41.92
2022-11-14T21:10:37.026Z,35.20
2022-11-14T21:15:59.877Z,37.45
2022-11-14T21:21:30.422Z,40.13
2022-11-14T21:26:53.905Z,41.15
2022-11-14T21:32:15.809Z,50.83
2022-11-14T21:37:37.295Z,43.50
2022-11-14T21:43:00.490Z,50.17
2022-11-14T21:48:22.334Z,45.92
2022-11-14T21:53:45.789Z,47.38
2022-11-14T21:59:14.458Z,41.88
2022-11-14T22:04:37.017Z,46.92
2022-11-14T22:09:58.718Z,54.50
2022-11-14T22:15:21.869Z,43.50
2022-11-14T22:20:43.887Z,47.42
2022-11-14T22:26:05.950Z,45.03
2022-11-14T22:31:28.977Z,49.00
2022-11-14T22:36:50.561Z,44.13
2022-11-14T22:42:12.577Z,56.10
2022-11-14T22:47:35.654Z,51.25
2022-11-14T22:52:57.637Z,45.97
2022-11-14T22:58:19.452Z,51.33
2022-11-14T23:03:42.760Z,45.85
2022-11-14T23:09:05.291Z,55.67
2022-11-14T23:14:26.815Z,48.15
2022-11-14T23:19:50.674Z,45.10
2022-11-14T23:25:12.366Z,40.85
2022-11-14T23:30:35.757Z,41.53
2022-11-14T23:35:59.060Z,38.33
2022-11-14T23:41:22.804Z,44.60
2022-11-14T23:46:44.382Z,48.40
2022-11-14T23:52:07.714Z,41.75
2022-11-14T23:57:30.888Z,48.63
